Time;durP1;ratioP1;P1;durP2;ratioP2;P2;SDS_P1;SDS_P2;PMS_P1;PMS_P2;Temp;Humidity;BMP_temperature;BMP_pressure;BME280_temperature;BME280_humidity;BME280_pressure;Samples;Min_cycle;Max_cycle;Signal;HPM_P1;HPM_P2
2023/03/11 00:00:17;;;;;;;50.28;2.47;;;;;;;20.85;58.41;96871.72;7307286;19;129481;-42
2023/03/11 00:02:44;;;;;;;27.25;1.67;;;;;;;20.92;58.43;96885.59;7309404;19;129770;-38
2023/03/11 00:05:15;;;;;;;102.10;6.30;;;;;;;20.80;58.15;96874.13;7307760;19;129436;-38
2023/03/11 00:07:40;;;;;;;72.80;3.70;;;;;;;20.88;57.83;96913.09;7307822;19;129098;-39
2023/03/11 00:10:07;;;;;;;45.60;2.38;;;;;;;20.85;58.02;96910.88;7310467;19;128958;-41
2023/03/11 00:12:32;;;;;;;36.17;1.88;;;;;;;20.76;58.18;96900.84;7309312;19;129713;-41
2023/03/11 00:14:58;;;;;;;38.28;2.08;;;;;;;20.87;58.22;96919.31;7306848;19;129376;-39
2023/03/11 00:17:23;;;;;;;93.97;4.95;;;;;;;20.88;58.65;96902.66;7305916;19;129581;-40
2023/03/11 00:19:48;;;;;;;29.80;1.73;;;;;;;20.83;58.67;96931.16;7311123;19;128918;-40
2023/03/11 00:22:14;;;;;;;40.85;2.15;;;;;;;20.82;58.66;96924.34;7308535;19;129309;-43
2023/03/11 00:24:39;;;;;;;46.08;2.17;;;;;;;20.83;58.92;96928.53;7309518;19;129551;-43
2023/03/11 00:27:05;;;;;;;50.45;3.15;;;;;;;20.82;59.08;96933.97;7309736;19;129601;-40
2023/03/11 00:29:31;;;;;;;28.27;1.57;;;;;;;20.81;59.19;96932.38;7309270;19;129883;-40
2023/03/11 00:31:56;;;;;;;34.93;2.33;;;;;;;20.79;58.52;96929.16;7306841;19;129529;-39
2023/03/11 00:34:21;;;;;;;65.07;3.63;;;;;;;20.80;59.18;96933.38;7309633;19;129457;-42
2023/03/11 00:36:46;;;;;;;58.00;2.88;;;;;;;20.81;59.91;96948.81;7308964;19;129724;-42
2023/03/11 00:39:12;;;;;;;38.85;2.08;;;;;;;20.79;58.92;96961.31;7309855;19;129693;-41
2023/03/11 00:41:37;;;;;;;16.98;1.08;;;;;;;20.81;59.45;96967.09;7306556;19;129175;-42
2023/03/11 00:44:03;;;;;;;62.92;3.22;;;;;;;20.82;58.95;96971.34;7309122;19;129591;-43
2023/03/11 00:46:29;;;;;;;90.80;4.57;;;;;;;20.84;59.96;96974.53;7307528;19;128864;-43
2023/03/11 00:48:55;;;;;;;22.67;1.35;;;;;;;20.72;60.19;96956.03;7307451;19;129057;-37
2023/03/11 00:51:21;;;;;;;89.78;4.90;;;;;;;20.84;59.52;96981.59;7304298;19;129236;-42
2023/03/11 00:53:46;;;;;;;59.27;2.97;;;;;;;20.86;59.12;96985.59;7309102;19;129241;-42
2023/03/11 00:56:14;;;;;;;18.30;1.13;;;;;;;20.83;59.40;96993.84;7307802;19;128923;-39
2023/03/11 00:58:42;;;;;;;31.15;1.63;;;;;;;20.76;60.00;96985.16;7308932;19;129015;-41
2023/03/11 01:01:17;;;;;;;46.22;2.47;;;;;;;20.78;61.22;96985.78;7304546;19;129101;-42
2023/03/11 01:03:43;;;;;;;44.85;2.25;;;;;;;20.87;59.64;97015.94;7307053;19;130355;-41
2023/03/11 01:06:08;;;;;;;35.55;1.75;;;;;;;20.84;59.37;97005.88;7300298;19;129477;-43
2023/03/11 01:08:34;;;;;;;38.17;1.95;;;;;;;20.81;60.12;97019.31;7303761;19;130917;-42
2023/03/11 01:11:00;;;;;;;26.10;1.48;;;;;;;20.82;59.11;97022.75;7304111;19;129455;-44
2023/03/11 01:13:28;;;;;;;57.25;2.97;;;;;;;20.80;59.07;97032.59;7306970;19;129656;-42
2023/03/11 01:15:54;;;;;;;71.43;3.53;;;;;;;20.77;60.19;97025.97;7305860;19;129602;-38
2023/03/11 01:18:20;;;;;;;30.90;1.55;;;;;;;20.78;58.65;97051.06;7305366;19;129242;-42
2023/03/11 01:20:46;;;;;;;71.35;3.35;;;;;;;20.76;58.55;97044.44;7299279;19;129658;-42
2023/03/11 01:23:13;;;;;;;63.10;3.05;;;;;;;20.76;59.35;97050.44;7302572;19;129669;-42
2023/03/11 01:25:39;;;;;;;;;;;;;;;20.78;60.61;97056.28;7303233;19;129784;-39
2023/03/11 01:28:07;;;;;;;75.13;3.72;;;;;;;20.75;58.23;97059.28;7302770;19;129499;-41
2023/03/11 01:30:34;;;;;;;62.70;2.97;;;;;;;20.59;58.89;97039.53;7309100;19;130367;-44
2023/03/11 01:33:00;;;;;;;63.28;2.92;;;;;;;20.64;58.49;97068.47;7312081;19;129444;-42
2023/03/11 01:35:27;;;;;;;64.93;3.17;;;;;;;20.69;58.96;97081.75;7308114;19;128824;-41
2023/03/11 01:37:53;;;;;;;43.10;2.25;;;;;;;20.69;58.95;97075.75;7314451;19;130597;-41
2023/03/11 01:40:37;;;;;;;37.95;2.03;;;;;;;20.67;60.32;97083.78;7314040;19;129937;-39
2023/03/11 01:43:04;;;;;;;31.55;1.67;;;;;;;20.67;58.89;97103.84;7314831;19;129661;-38
2023/03/11 01:46:25;;;;;;;55.85;2.83;;;;;;;20.66;61.17;97097.00;7311390;19;129242;-41
2023/03/11 01:48:55;;;;;;;18.15;1.13;;;;;;;20.60;58.35;97088.16;7311443;19;128989;-43
2023/03/11 01:51:28;;;;;;;42.80;2.17;;;;;;;20.61;59.19;97104.59;7313263;19;129453;-43
2023/03/11 01:53:56;;;;;;;47.13;2.50;;;;;;;20.63;58.51;97113.06;7315056;19;129616;-44
2023/03/11 01:56:22;;;;;;;66.28;3.25;;;;;;;20.63;59.27;97128.72;7314025;19;129352;-39
2023/03/11 01:58:52;;;;;;;36.67;1.85;;;;;;;20.63;58.90;97129.53;7315289;19;129620;-39
2023/03/11 02:01:19;;;;;;;54.70;2.90;;;;;;;20.55;58.30;97119.25;7312383;19;130848;-43
2023/03/11 02:03:44;;;;;;;43.30;2.25;;;;;;;20.60;59.14;97136.94;7314045;19;130375;-41
2023/03/11 02:06:22;;;;;;;51.85;2.58;;;;;;;20.59;59.47;97137.94;7312540;19;129922;-44
2023/03/11 02:08:49;;;;;;;43.85;2.17;;;;;;;20.59;58.87;97137.94;7314514;19;128975;-41
2023/03/11 02:11:23;;;;;;;29.13;1.52;;;;;;;20.50;59.12;97123.44;7313378;19;129528;-42
2023/03/11 02:13:51;;;;;;;40.22;2.13;;;;;;;20.58;58.83;97138.94;7313781;19;129236;-41
2023/03/11 02:16:17;;;;;;;48.35;2.42;;;;;;;20.58;58.52;97165.03;7312040;19;129043;-43
2023/03/11 02:18:43;;;;;;;42.57;2.10;;;;;;;20.57;58.72;97155.59;7314649;19;129390;-42
2023/03/11 02:21:27;;;;;;;32.33;1.67;;;;;;;20.52;59.71;97160.59;7313881;19;129187;-44
2023/03/11 02:24:10;;;;;;;45.88;2.47;;;;;;;20.56;58.92;97180.09;7314760;19;129313;-42
2023/03/11 02:26:39;;;;;;;50.38;2.58;;;;;;;20.54;59.24;97171.66;7312384;19;128825;-41
2023/03/11 02:29:07;;;;;;;29.15;1.55;;;;;;;20.54;58.82;97179.47;7312570;19;130356;-43
2023/03/11 02:31:35;;;;;;;42.40;2.03;;;;;;;20.46;58.68;97163.97;7312653;19;129628;-40
2023/03/11 02:34:03;;;;;;;72.10;3.78;;;;;;;20.56;59.03;97185.31;7313323;19;129882;-38
2023/03/11 02:36:39;;;;;;;49.17;2.65;;;;;;;20.54;58.74;97193.31;7311385;19;128950;-43
2023/03/11 02:39:06;;;;;;;42.10;2.20;;;;;;;20.55;58.73;97207.19;7314117;19;129325;-45
2023/03/11 02:41:35;;;;;;;31.90;1.65;;;;;;;20.52;58.69;97204.97;7310294;19;129364;-43
2023/03/11 02:44:02;;;;;;;76.68;4.13;;;;;;;20.53;59.17;97219.59;7312447;19;129340;-40
2023/03/11 02:46:27;;;;;;;40.83;2.10;;;;;;;20.52;59.15;97220.63;7309081;19;129991;-41
2023/03/11 02:48:54;;;;;;;41.03;2.20;;;;;;;20.52;58.54;97237.09;7312218;19;129502;-41
2023/03/11 02:51:20;;;;;;;42.88;2.25;;;;;;;20.40;58.90;97217.72;7309520;19;129727;-41
2023/03/11 02:53:50;;;;;;;59.60;3.08;;;;;;;20.51;59.06;97242.50;7311200;19;129317;-40
2023/03/11 02:56:15;;;;;;;31.60;1.63;;;;;;;20.52;59.15;97257.16;7310857;19;128852;-43
2023/03/11 02:58:41;;;;;;;44.65;2.28;;;;;;;20.54;59.03;97261.19;7313237;19;129117;-40
2023/03/11 03:01:06;;;;;;;16.05;0.90;;;;;;;20.53;59.71;97271.81;7311649;19;129360;-43
2023/03/11 03:03:31;;;;;;;57.50;2.75;;;;;;;20.48;59.36;97267.16;7312040;19;129173;-44
2023/03/11 03:05:57;;;;;;;47.20;2.38;;;;;;;20.53;59.19;97283.06;7311580;19;129360;-44
2023/03/11 03:08:22;;;;;;;66.40;3.40;;;;;;;20.52;59.37;97298.91;7311792;19;129004;-39
2023/03/11 03:10:47;;;;;;;43.25;2.10;;;;;;;20.52;58.62;97304.16;7312989;19;129457;-43
2023/03/11 03:13:13;;;;;;;66.10;3.28;;;;;;;20.42;59.32;97298.44;7312981;19;130026;-42
2023/03/11 03:15:38;;;;;;;40.88;2.13;;;;;;;20.51;59.62;97313.75;7310236;19;129495;-38
2023/03/11 03:18:04;;;;;;;39.30;1.92;;;;;;;20.51;58.93;97334.66;7312379;19;129097;-42
2023/03/11 03:20:29;;;;;;;38.53;1.83;;;;;;;20.49;59.43;97330.63;7312147;19;130177;-42
2023/03/11 03:22:55;;;;;;;68.00;3.47;;;;;;;20.51;59.13;97339.09;7312275;19;130497;-43
2023/03/11 03:25:21;;;;;;;39.30;1.92;;;;;;;20.52;59.10;97351.13;7310854;19;128895;-41
2023/03/11 03:27:46;;;;;;;54.83;2.92;;;;;;;20.50;59.56;97353.09;7310961;19;128932;-40
2023/03/11 03:30:12;;;;;;;53.45;2.83;;;;;;;20.47;59.38;97363.94;7311965;19;129249;-43
2023/03/11 03:32:38;;;;;;;31.45;1.75;;;;;;;20.46;59.63;97372.75;7313490;19;129168;-43
2023/03/11 03:35:04;;;;;;;60.65;3.38;;;;;;;20.46;59.13;97388.44;7310454;19;128776;-39
2023/03/11 03:37:33;;;;;;;42.50;2.20;;;;;;;20.46;59.17;97396.25;7312165;19;128828;-43
2023/03/11 03:39:58;;;;;;;49.38;2.47;;;;;;;20.47;59.27;97400.47;7312667;19;130271;-37
2023/03/11 03:42:24;;;;;;;46.65;2.58;;;;;;;20.41;59.50;97406.44;7309334;19;129228;-42
2023/03/11 03:44:51;;;;;;;43.05;2.22;;;;;;;20.43;59.36;97430.53;7311703;19;129887;-39
2023/03/11 03:47:16;;;;;;;40.00;2.05;;;;;;;20.46;58.99;97424.97;7310124;19;129634;-44
2023/03/11 03:49:41;;;;;;;26.35;1.50;;;;;;;20.46;59.57;97438.00;7308660;19;129755;-42
2023/03/11 03:52:07;;;;;;;66.93;3.38;;;;;;;20.41;59.24;97429.94;7307490;19;129738;-44
2023/03/11 03:54:33;;;;;;;48.70;2.47;;;;;;;20.31;59.35;97424.19;7309540;19;129216;-40
2023/03/11 03:56:58;;;;;;;37.25;1.85;;;;;;;20.42;59.54;97460.25;7310535;19;128990;-43
2023/03/11 03:59:24;;;;;;;63.50;3.15;;;;;;;20.42;59.60;97475.91;7311039;19;129864;-45
2023/03/11 04:01:49;;;;;;;21.52;1.20;;;;;;;20.41;59.81;97461.25;7310471;19;131099;-44
2023/03/11 04:04:14;;;;;;;47.30;2.53;;;;;;;20.41;59.05;97484.72;7310884;19;128875;-44
2023/03/11 04:06:41;;;;;;;44.77;2.40;;;;;;;20.42;60.02;97494.16;7309755;19;128817;-40
2023/03/11 04:09:08;;;;;;;;;;;;;;;20.41;60.85;97498.56;7309750;19;129307;-39
2023/03/11 04:11:34;;;;;;;41.28;2.08;;;;;;;20.38;59.20;97505.94;7310429;19;129173;-43
2023/03/11 04:14:01;;;;;;;60.15;3.13;;;;;;;20.35;59.14;97514.16;7310283;19;129383;-36
2023/03/11 04:16:26;;;;;;;51.53;2.65;;;;;;;20.37;59.32;97526.03;7309863;19;129969;-41
2023/03/11 04:18:52;;;;;;;67.43;3.53;;;;;;;20.40;60.03;97524.84;7310197;19;129535;-41
2023/03/11 04:21:17;;;;;;;43.87;2.33;;;;;;;20.37;59.33;97520.81;7310356;19;129724;-42
2023/03/11 04:23:42;;;;;;;42.53;2.15;;;;;;;20.40;60.49;97540.50;7310962;19;129291;-41
2023/03/11 04:26:08;;;;;;;32.45;1.60;;;;;;;20.37;59.42;97543.50;7308961;19;129395;-39
2023/03/11 04:28:33;;;;;;;61.83;3.00;;;;;;;20.36;59.66;97549.72;7309429;19;129009;-44
2023/03/11 04:30:58;;;;;;;36.70;1.95;;;;;;;20.22;59.77;97540.91;7310238;19;129336;-39
2023/03/11 04:33:24;;;;;;;47.20;2.47;;;;;;;20.31;59.62;97562.50;7311364;19;129553;-40
2023/03/11 04:35:49;;;;;;;52.35;2.67;;;;;;;20.41;61.22;97583.91;7308102;19;129578;-42
2023/03/11 04:38:14;;;;;;;63.10;3.07;;;;;;;20.47;59.64;97577.94;7308388;19;129266;-43
2023/03/11 04:40:40;;;;;;;34.45;1.75;;;;;;;20.58;59.06;97554.81;7309925;19;129164;-42
2023/03/11 04:43:05;;;;;;;30.48;1.42;;;;;;;21.14;57.90;97592.44;7309804;19;129359;-42
2023/03/11 04:45:31;;;;;;;40.80;2.33;;;;;;;21.60;55.80;97570.16;7306864;19;128929;-42
2023/03/11 04:47:56;;;;;;;46.70;2.35;;;;;;;22.13;54.23;97592.31;7308792;19;131154;-38
2023/03/11 04:50:22;;;;;;;89.93;4.63;;;;;;;22.46;53.20;97595.16;7306988;19;130028;-42
2023/03/11 04:52:47;;;;;;;30.40;1.57;;;;;;;22.73;52.70;97602.97;7309794;19;129034;-43
2023/03/11 04:55:14;;;;;;;132.93;7.57;;;;;;;22.93;51.81;97609.09;7307131;19;129439;-40
2023/03/11 04:57:40;;;;;;;31.08;1.67;;;;;;;23.01;51.66;97608.09;7308024;19;130410;-43
2023/03/11 05:00:10;;;;;;;38.78;1.90;;;;;;;23.18;51.28;97619.84;7310018;19;129662;-39
2023/03/11 05:02:36;;;;;;;17.88;1.10;;;;;;;23.24;51.26;97621.69;7304134;19;131158;-42
2023/03/11 05:05:02;;;;;;;78.45;4.05;;;;;;;23.26;51.38;97627.53;7313011;19;129806;-44
2023/03/11 05:07:27;;;;;;;40.37;1.93;;;;;;;23.16;51.07;97627.09;7315837;19;128966;-45
2023/03/11 05:09:53;;;;;;;71.63;3.63;;;;;;;23.19;50.96;97639.81;7312347;19;129364;-39
2023/03/11 05:12:18;;;;;;;45.80;2.40;;;;;;;23.01;51.34;97631.69;7312368;19;129323;-40
2023/03/11 05:14:43;;;;;;;73.25;3.70;;;;;;;23.06;51.96;97668.59;7315051;19;128996;-40
2023/03/11 05:17:11;;;;;;;43.60;2.17;;;;;;;23.14;51.09;97668.44;7312471;19;130931;-40
2023/03/11 05:19:37;;;;;;;66.22;3.40;;;;;;;23.09;51.18;97676.06;7315666;19;130373;-41
2023/03/11 05:22:03;;;;;;;38.15;1.92;;;;;;;23.07;51.72;97678.88;7312522;19;129074;-43
2023/03/11 05:24:29;;;;;;;76.10;3.67;;;;;;;23.15;51.72;97686.56;7313781;19;129160;-40
2023/03/11 05:26:55;;;;;;;50.47;2.57;;;;;;;23.25;51.24;97691.47;7314469;19;130119;-37
2023/03/11 05:29:21;;;;;;;64.53;3.40;;;;;;;23.36;50.65;97704.03;7310543;19;130196;-42
2023/03/11 05:31:46;;;;;;;43.77;2.33;;;;;;;23.46;50.93;97706.28;7313273;19;129390;-42
2023/03/11 05:34:12;;;;;;;66.30;3.17;;;;;;;23.54;50.09;97717.41;7315033;19;129381;-42
2023/03/11 05:36:38;;;;;;;31.47;1.73;;;;;;;23.54;50.29;97704.31;7314312;19;129141;-42
2023/03/11 05:39:04;;;;;;;45.97;2.43;;;;;;;23.64;50.70;97732.78;7314227;19;130438;-43
2023/03/11 05:41:29;;;;;;;34.90;1.80;;;;;;;23.76;50.00;97725.94;7314149;19;129280;-39
2023/03/11 05:43:55;;;;;;;54.40;2.72;;;;;;;23.64;49.99;97738.84;7312608;19;129881;-44
2023/03/11 05:46:20;;;;;;;51.27;2.67;;;;;;;23.46;50.41;97728.09;7314090;19;130327;-39
2023/03/11 05:48:45;;;;;;;42.37;2.27;;;;;;;23.43;50.67;97738.97;7310612;19;130290;-40
2023/03/11 05:51:11;;;;;;;40.50;2.13;;;;;;;23.16;51.19;97740.66;7313637;19;129546;-38
2023/03/11 05:53:37;;;;;;;68.60;3.50;;;;;;;23.13;51.51;97766.44;7311844;19;129451;-42
2023/03/11 05:56:03;;;;;;;34.90;1.87;;;;;;;22.94;52.21;97769.75;7312766;19;129606;-40
2023/03/11 05:58:30;;;;;;;105.28;5.75;;;;;;;22.91;52.58;97777.97;7309874;19;131427;-39
2023/03/11 06:00:56;;;;;;;254.73;14.05;;;;;;;22.76;52.63;97777.28;7307366;19;129290;-42
2023/03/11 06:03:21;;;;;;;164.02;8.70;;;;;;;22.83;52.87;97786.00;7310630;19;129465;-43
2023/03/11 06:05:48;;;;;;;60.65;3.15;;;;;;;22.86;52.57;97794.28;7310477;19;129746;-37
2023/03/11 06:08:14;;;;;;;;;;;;;;;22.84;51.99;97787.63;7312918;19;130446;-39
2023/03/11 06:10:40;;;;;;;55.08;2.67;;;;;;;23.04;51.83;97801.66;7313990;19;129714;-44
2023/03/11 06:13:05;;;;;;;44.60;2.23;;;;;;;23.18;51.78;97806.81;7315235;19;129187;-38
2023/03/11 06:15:32;;;;;;;56.40;2.92;;;;;;;23.26;50.99;97813.69;7308567;19;129039;-43
2023/03/11 06:17:58;;;;;;;59.03;3.10;;;;;;;23.39;51.32;97828.75;7311873;19;129633;-41
2023/03/11 06:20:23;;;;;;;76.50;3.77;;;;;;;23.47;50.34;97842.47;7311827;19;129243;-40
2023/03/11 06:22:49;;;;;;;27.27;1.60;;;;;;;23.51;50.67;97843.72;7313522;19;130737;-41
2023/03/11 06:25:15;;;;;;;112.87;6.53;;;;;;;23.66;49.96;97854.91;7311129;19;129733;-45
2023/03/11 06:27:40;;;;;;;37.47;2.13;;;;;;;23.71;49.79;97849.06;7308819;19;129673;-39
2023/03/11 06:30:06;;;;;;;80.28;3.83;;;;;;;23.84;49.75;97856.97;7308623;19;129225;-42
2023/03/11 06:32:33;;;;;;;46.07;2.40;;;;;;;23.86;49.72;97868.91;7309976;19;129593;-39
2023/03/11 06:34:59;;;;;;;17.90;0.98;;;;;;;23.73;49.68;97868.88;7310745;19;129868;-43
2023/03/11 06:37:24;;;;;;;39.90;2.07;;;;;;;23.68;50.08;97879.13;7310907;19;129460;-41
2023/03/11 06:39:53;;;;;;;73.00;3.83;;;;;;;23.53;50.13;97883.69;7313409;19;128925;-42
2023/03/11 06:42:19;;;;;;;38.65;2.05;;;;;;;23.42;50.85;97907.03;7307402;19;129070;-40
2023/03/11 06:44:47;;;;;;;95.30;5.27;;;;;;;23.29;50.79;97899.06;7309954;19;129282;-42
2023/03/11 06:47:12;;;;;;;46.60;2.40;;;;;;;23.19;51.35;97907.22;7307607;19;129662;-40
2023/03/11 06:49:40;;;;;;;60.00;2.83;;;;;;;23.07;51.46;97924.50;7310025;19;129344;-41
2023/03/11 06:52:06;;;;;;;107.88;5.95;;;;;;;23.02;51.70;97921.63;7308099;19;129300;-41
2023/03/11 06:54:31;;;;;;;38.07;2.13;;;;;;;23.05;51.76;97916.00;7312498;19;130760;-39
2023/03/11 06:56:57;;;;;;;37.27;1.93;;;;;;;23.11;51.70;97941.44;7309971;19;129838;-39
2023/03/11 06:59:22;;;;;;;84.90;4.50;;;;;;;23.25;51.80;97933.50;7312416;19;129244;-40
2023/03/11 07:01:47;;;;;;;55.53;2.93;;;;;;;23.33;51.72;97945.69;7311546;19;131006;-40
2023/03/11 07:04:13;;;;;;;44.03;2.33;;;;;;;23.39;51.37;97952.78;7311274;19;129571;-39
2023/03/11 07:06:40;;;;;;;48.28;2.60;;;;;;;23.47;50.43;97955.28;7309639;19;129940;-44
2023/03/11 07:09:06;;;;;;;30.13;1.63;;;;;;;23.64;50.76;97967.09;7310967;19;128989;-37
2023/03/11 07:11:31;;;;;;;38.50;2.07;;;;;;;23.68;50.39;97970.97;7309905;19;129771;-44
2023/03/11 07:13:57;;;;;;;44.55;2.42;;;;;;;23.67;50.27;97945.72;7309895;19;129481;-39
2023/03/11 07:16:25;;;;;;;78.47;4.10;;;;;;;23.84;50.27;97996.91;7309063;19;129774;-40
2023/03/11 07:18:53;;;;;;;63.47;3.13;;;;;;;23.98;49.23;97992.59;7310752;19;129237;-42
2023/03/11 07:21:21;;;;;;;62.95;3.33;;;;;;;23.96;49.85;98000.63;7310314;19;129390;-40
2023/03/11 07:23:50;;;;;;;51.40;2.63;;;;;;;23.96;49.27;97990.13;7306344;19;129621;-40
2023/03/11 07:26:16;;;;;;;72.45;3.75;;;;;;;23.81;50.14;98015.66;7306496;19;129164;-39
2023/03/11 07:28:43;;;;;;;81.77;4.13;;;;;;;23.76;50.18;98020.69;7309648;19;129661;-42
2023/03/11 07:31:32;;;;;;;71.35;4.00;;;;;;;23.58;50.73;98027.41;7307699;19;129171;-39
2023/03/11 07:33:59;;;;;;;39.30;2.08;;;;;;;23.45;50.58;98022.88;7310764;19;130786;-39
2023/03/11 07:36:26;;;;;;;75.80;4.03;;;;;;;23.30;50.76;98035.25;7304952;19;129733;-42
2023/03/11 07:39:03;;;;;;;46.05;2.58;;;;;;;23.17;51.21;98035.88;7303795;19;130986;-38
2023/03/11 07:41:30;;;;;;;55.40;2.87;;;;;;;23.14;51.11;98045.94;7309830;19;129828;-42
2023/03/11 07:43:58;;;;;;;55.67;3.05;;;;;;;23.19;50.50;98048.81;7305505;19;130745;-41
2023/03/11 07:46:25;;;;;;;57.03;3.15;;;;;;;23.20;50.75;98063.56;7308007;19;129361;-41
2023/03/11 07:48:51;;;;;;;41.97;2.35;;;;;;;23.31;50.69;98051.75;7309021;19;128908;-40
2023/03/11 07:51:21;;;;;;;52.60;3.27;;;;;;;23.41;50.81;98068.00;7308111;19;129376;-42
2023/03/11 07:53:47;;;;;;;46.95;2.70;;;;;;;23.46;50.35;98082.19;7308617;19;129169;-41
2023/03/11 07:56:15;;;;;;;56.30;3.15;;;;;;;23.57;49.53;98084.28;7308081;19;129455;-40
2023/03/11 07:58:40;;;;;;;36.55;2.15;;;;;;;23.67;49.45;98084.00;7306345;19;129589;-39
2023/03/11 08:01:12;;;;;;;42.00;2.35;;;;;;;23.73;49.55;98091.91;7309986;19;129524;-42
2023/03/11 08:03:37;;;;;;;86.82;4.47;;;;;;;23.82;49.89;98096.00;7308984;19;129271;-37
2023/03/11 08:06:11;;;;;;;48.87;2.70;;;;;;;23.98;48.63;98103.63;7309029;19;129527;-43
2023/03/11 08:08:36;;;;;;;46.47;2.65;;;;;;;24.07;48.76;98112.19;7307550;19;129218;-38
2023/03/11 08:11:03;;;;;;;44.40;2.37;;;;;;;24.04;48.36;98116.00;7309203;19;129025;-42
2023/03/11 08:13:28;;;;;;;148.88;7.93;;;;;;;24.09;48.44;98128.56;7305205;19;130271;-39
2023/03/11 08:15:53;;;;;;;51.90;2.88;;;;;;;23.98;49.08;98135.13;7306053;19;129706;-41
2023/03/11 08:18:19;;;;;;;34.90;2.00;;;;;;;23.98;49.23;98129.09;7305740;19;129710;-42
2023/03/11 08:20:44;;;;;;;65.47;3.73;;;;;;;23.87;48.62;98138.25;7307609;19;129183;-40
2023/03/11 08:23:10;;;;;;;67.57;3.60;;;;;;;23.74;49.29;98143.38;7308482;19;129482;-38
2023/03/11 08:25:38;;;;;;;50.60;2.90;;;;;;;23.56;49.71;98140.41;7307225;19;129724;-40
2023/03/11 08:28:06;;;;;;;43.25;2.83;;;;;;;23.41;50.20;98154.56;7308614;19;129017;-43
2023/03/11 08:30:32;;;;;;;30.05;2.00;;;;;;;23.27;50.19;98156.22;7300000;19;129331;-41
2023/03/11 08:32:57;;;;;;;62.20;3.07;;;;;;;23.16;50.78;98147.00;7308851;19;129114;-42
2023/03/11 08:35:22;;;;;;;64.90;3.67;;;;;;;23.23;50.28;98173.31;7304306;19;130980;-42
2023/03/11 08:37:48;;;;;;;81.57;4.55;;;;;;;23.29;50.97;98174.41;7304890;19;129245;-41
2023/03/11 08:40:13;;;;;;;45.28;2.60;;;;;;;23.36;50.44;98186.59;7306473;19;129856;-41
2023/03/11 08:42:39;;;;;;;61.63;3.33;;;;;;;23.43;50.10;98186.66;7311573;19;129696;-41
2023/03/11 08:45:05;;;;;;;260.77;14.30;;;;;;;23.53;50.29;98190.63;7310095;19;129498;-41
2023/03/11 08:47:34;;;;;;;76.60;4.30;;;;;;;23.63;49.24;98198.19;7312302;19;129181;-42
2023/03/11 08:49:59;;;;;;;45.95;2.75;;;;;;;23.71;49.72;98201.50;7310730;19;129177;-43
2023/03/11 08:52:24;;;;;;;85.83;4.50;;;;;;;23.77;48.97;98210.41;7312378;19;129064;-42
2023/03/11 08:54:50;;;;;;;23.88;1.83;;;;;;;23.77;48.17;98199.91;7314129;19;129295;-42
2023/03/11 08:57:15;;;;;;;70.73;4.20;;;;;;;23.97;47.58;98206.19;7314078;19;128897;-44
2023/03/11 08:59:40;;;;;;;67.75;4.00;;;;;;;24.03;47.87;98215.97;7311933;19;130092;-41
2023/03/11 09:02:06;;;;;;;48.33;2.73;;;;;;;24.08;47.50;98217.00;7307585;19;129980;-43
2023/03/11 09:04:31;;;;;;;75.18;4.75;;;;;;;24.15;47.52;98224.94;7309889;19;129295;-42
2023/03/11 09:06:57;;;;;;;50.92;3.10;;;;;;;24.18;46.72;98225.38;7308988;19;128961;-37
2023/03/11 09:09:22;;;;;;;66.73;3.87;;;;;;;24.11;47.35;98240.25;7310323;19;130135;-38
2023/03/11 09:11:47;;;;;;;39.20;2.63;;;;;;;24.07;47.29;98239.03;7309218;19;131677;-42
2023/03/11 09:14:14;;;;;;;44.57;2.70;;;;;;;24.00;47.27;98251.28;7314306;19;130388;-41
2023/03/11 09:16:39;;;;;;;80.50;4.82;;;;;;;23.79;48.39;98248.63;7306599;19;129964;-40
2023/03/11 09:19:06;;;;;;;77.20;4.37;;;;;;;23.69;48.37;98255.16;7311124;19;129386;-41
2023/03/11 09:21:35;;;;;;;70.70;4.00;;;;;;;23.55;48.62;98256.81;7308936;19;129634;-41
2023/03/11 09:24:03;;;;;;;42.70;2.78;;;;;;;23.41;49.18;98256.84;7313663;19;130262;-41
2023/03/11 09:26:31;;;;;;;59.92;3.60;;;;;;;23.35;49.37;98257.59;7312840;19;129002;-38
2023/03/11 09:28:57;;;;;;;61.33;3.63;;;;;;;23.33;49.24;98270.88;7310183;19;129592;-42
2023/03/11 09:31:22;;;;;;;75.50;4.17;;;;;;;23.36;49.30;98281.00;7311096;19;130314;-41
2023/03/11 09:33:48;;;;;;;41.65;2.58;;;;;;;23.34;49.59;98285.63;7313844;19;129572;-41
2023/03/11 09:36:19;;;;;;;79.05;4.35;;;;;;;23.28;49.57;98291.59;7311915;19;129302;-44
2023/03/11 09:38:46;;;;;;;63.92;3.63;;;;;;;23.30;49.98;98291.41;7313878;19;128985;-39
2023/03/11 09:41:21;;;;;;;;;;;;;;;23.23;49.83;98293.91;7310783;19;131015;-36
2023/03/11 09:44:06;;;;;;;40.08;2.83;;;;;;;23.39;49.22;98309.50;7312606;19;129727;-41
2023/03/11 09:47:13;;;;;;;171.20;9.68;;;;;;;23.45;49.63;98305.34;7309523;19;129020;-43
2023/03/11 09:50:02;;;;;;;66.95;3.65;;;;;;;23.45;48.95;98306.16;7308681;19;129127;-42
2023/03/11 09:53:02;;;;;;;72.05;4.10;;;;;;;23.59;49.21;98314.97;7307959;19;130285;-38
2023/03/11 09:55:33;;;;;;;69.28;4.00;;;;;;;23.70;48.79;98319.78;7305137;19;129318;-39
2023/03/11 09:58:03;;;;;;;41.20;2.63;;;;;;;23.75;48.29;98328.72;7308855;19;130947;-39
2023/03/11 10:00:29;;;;;;;95.05;5.38;;;;;;;23.86;48.37;98319.56;7311234;19;128918;-42
2023/03/11 10:02:55;;;;;;;56.72;3.47;;;;;;;23.91;48.59;98332.94;7311532;19;131267;-34
2023/03/11 10:05:24;;;;;;;48.33;3.00;;;;;;;23.95;48.02;98327.13;7311562;19;129683;-38
2023/03/11 10:08:27;;;;;;;88.53;4.93;;;;;;;23.98;48.45;98334.66;7313353;19;129751;-40
2023/03/11 10:11:14;;;;;;;37.28;2.58;;;;;;;24.01;47.73;98326.44;7307160;19;129763;-43
2023/03/11 10:13:51;;;;;;;46.03;2.75;;;;;;;24.08;47.83;98337.81;7308575;19;129541;-39
2023/03/11 10:16:34;;;;;;;125.65;7.28;;;;;;;24.09;47.40;98341.25;7308864;19;130344;-38
2023/03/11 10:19:24;;;;;;;59.35;3.15;;;;;;;24.11;47.99;98357.63;7310294;19;130789;-42
2023/03/11 10:22:01;;;;;;;58.00;3.28;;;;;;;24.12;47.23;98352.19;7309224;19;129061;-42
2023/03/11 10:24:44;;;;;;;85.13;4.78;;;;;;;24.04;47.23;98360.19;7311671;19;129718;-42
2023/03/11 10:27:41;;;;;;;47.35;2.92;;;;;;;23.93;47.71;98363.25;7312283;19;129497;-43
2023/03/11 10:30:23;;;;;;;45.38;2.67;;;;;;;23.78;48.07;98357.22;7311458;19;129179;-42
2023/03/11 10:33:19;;;;;;;41.35;2.80;;;;;;;23.64;48.70;98358.06;7314921;19;129357;-44
2023/03/11 10:35:48;;;;;;;65.45;3.65;;;;;;;23.56;48.84;98355.53;7311652;19;130850;-38
2023/03/11 10:38:20;;;;;;;55.58;3.33;;;;;;;23.53;48.95;98360.31;7314293;19;129306;-43
2023/03/11 10:40:49;;;;;;;38.00;2.45;;;;;;;23.48;49.02;98363.50;7313943;19;129275;-43
2023/03/11 10:43:25;;;;;;;61.85;3.83;;;;;;;23.48;48.91;98373.16;7312835;19;129382;-44
2023/03/11 10:45:52;;;;;;;50.75;3.15;;;;;;;23.54;48.97;98364.56;7309697;19;129360;-41
2023/03/11 10:48:19;;;;;;;69.82;3.92;;;;;;;23.65;49.03;98375.41;7312744;19;130188;-43
2023/03/11 10:51:01;;;;;;;56.70;3.38;;;;;;;23.68;49.48;98380.31;7306936;19;129532;-41
2023/03/11 10:53:26;;;;;;;43.17;2.80;;;;;;;23.77;48.47;98389.72;7310153;19;129062;-42
2023/03/11 10:55:54;;;;;;;41.03;2.77;;;;;;;23.87;48.54;98395.50;7311657;19;129745;-43
2023/03/11 10:58:26;;;;;;;55.38;3.38;;;;;;;23.87;48.09;98390.25;7307901;19;129718;-41
2023/03/11 11:01:13;;;;;;;62.70;3.40;;;;;;;24.05;48.09;98401.19;7312254;19;129410;-39
2023/03/11 11:03:45;;;;;;;53.47;3.13;;;;;;;24.05;47.81;98409.06;7310271;19;129319;-40
2023/03/11 11:06:40;;;;;;;29.83;1.83;;;;;;;24.05;48.21;98416.13;7312176;19;129497;-44
2023/03/11 11:09:08;;;;;;;48.72;2.92;;;;;;;24.14;47.23;98413.22;7310226;19;131000;-41
2023/03/11 11:11:35;;;;;;;59.45;3.78;;;;;;;24.23;47.26;98401.59;7312074;19;129488;-40
2023/03/11 11:14:00;;;;;;;39.30;2.50;;;;;;;24.27;47.85;98412.56;7310137;19;129466;-43
2023/03/11 11:16:27;;;;;;;57.10;3.67;;;;;;;24.30;47.42;98412.19;7309220;19;130234;-40
2023/03/11 11:19:11;;;;;;;140.23;7.45;;;;;;;24.28;47.30;98412.38;7311141;19;129552;-40
2023/03/11 11:21:40;;;;;;;43.47;2.70;;;;;;;24.31;47.68;98419.09;7311158;19;129332;-40